sensor_id;sensor_type;location;lat;lon;timestamp;pressure;altitude;pressure_sealevel;temperature;humidity
59951;BME280;45812;53.540;9.774;2022-07-10T00:01:54;102251.19;;;13.43;95.55
59951;BME280;45812;53.540;9.774;2022-07-10T00:04:19;102242.19;;;13.44;95.76
59951;BME280;45812;53.540;9.774;2022-07-10T00:06:45;102234.47;;;13.41;96.12
59951;BME280;45812;53.540;9.774;2022-07-10T00:09:12;102239.28;;;13.18;97.76
59951;BME280;45812;53.540;9.774;2022-07-10T00:11:38;102237.31;;;13.29;97.99
59951;BME280;45812;53.540;9.774;2022-07-10T00:14:04;102237.88;;;13.23;98.65
59951;BME280;45812;53.540;9.774;2022-07-10T00:16:29;102244.38;;;13.21;99.49
59951;BME280;45812;53.540;9.774;2022-07-10T00:18:54;102250.13;;;13.26;100.00
59951;BME280;45812;53.540;9.774;2022-07-10T00:21:20;102243.25;;;13.23;100.00
59951;BME280;45812;53.540;9.774;2022-07-10T00:23:45;102231.81;;;13.12;93.95
59951;BME280;45812;53.540;9.774;2022-07-10T00:26:11;102228.31;;;13.11;90.52
59951;BME280;45812;53.540;9.774;2022-07-10T00:28:36;102232.41;;;13.25;90.00
59951;BME280;45812;53.540;9.774;2022-07-10T00:31:02;102235.72;;;13.37;90.00
59951;BME280;45812;53.540;9.774;2022-07-10T00:33:27;102234.66;;;13.57;89.75
59951;BME280;45812;53.540;9.774;2022-07-10T00:35:53;102230.13;;;13.67;88.93
59951;BME280;45812;53.540;9.774;2022-07-10T00:38:18;102228.13;;;13.69;89.36
59951;BME280;45812;53.540;9.774;2022-07-10T00:40:43;102224.31;;;13.44;91.61
59951;BME280;45812;53.540;9.774;2022-07-10T00:43:09;102230.19;;;13.48;92.66
59951;BME280;45812;53.540;9.774;2022-07-10T00:45:34;102224.47;;;13.33;94.86
59951;BME280;45812;53.540;9.774;2022-07-10T00:48:00;102228.38;;;13.39;95.00
59951;BME280;45812;53.540;9.774;2022-07-10T00:50:25;102221.56;;;13.26;95.88
59951;BME280;45812;53.540;9.774;2022-07-10T00:52:51;102228.00;;;13.14;97.51
59951;BME280;45812;53.540;9.774;2022-07-10T00:55:17;102228.00;;;13.14;97.84
59951;BME280;45812;53.540;9.774;2022-07-10T00:57:42;102223.53;;;13.24;97.46
59951;BME280;45812;53.540;9.774;2022-07-10T01:00:09;102234.91;;;13.26;97.85
59951;BME280;45812;53.540;9.774;2022-07-10T01:02:39;102223.81;;;13.21;98.73
59951;BME280;45812;53.540;9.774;2022-07-10T01:05:06;102224.19;;;13.17;99.21
59951;BME280;45812;53.540;9.774;2022-07-10T01:07:31;102226.75;;;13.18;99.21
59951;BME280;45812;53.540;9.774;2022-07-10T01:09:57;102215.63;;;13.13;99.55
59951;BME280;45812;53.540;9.774;2022-07-10T01:12:24;102214.81;;;13.22;99.14
59951;BME280;45812;53.540;9.774;2022-07-10T01:14:50;102218.75;;;13.18;98.85
59951;BME280;45812;53.540;9.774;2022-07-10T01:17:15;102223.25;;;13.08;100.00
59951;BME280;45812;53.540;9.774;2022-07-10T01:19:42;102223.56;;;13.05;100.00
59951;BME280;45812;53.540;9.774;2022-07-10T01:22:07;102214.56;;;12.77;100.00
59951;BME280;45812;53.540;9.774;2022-07-10T01:24:32;102210.81;;;12.70;100.00
59951;BME280;45812;53.540;9.774;2022-07-10T01:26:58;102203.22;;;12.56;100.00
59951;BME280;45812;53.540;9.774;2022-07-10T01:29:23;102198.41;;;12.59;100.00
59951;BME280;45812;53.540;9.774;2022-07-10T01:31:49;102198.59;;;12.48;100.00
59951;BME280;45812;53.540;9.774;2022-07-10T01:34:14;102192.09;;;12.60;100.00
59951;BME280;45812;53.540;9.774;2022-07-10T01:36:40;102190.84;;;12.55;100.00
59951;BME280;45812;53.540;9.774;2022-07-10T01:39:06;102195.47;;;12.43;100.00
59951;BME280;45812;53.540;9.774;2022-07-10T01:41:32;102188.75;;;12.29;100.00
59951;BME280;45812;53.540;9.774;2022-07-10T01:43:57;102191.41;;;12.20;100.00
59951;BME280;45812;53.540;9.774;2022-07-10T01:46:23;102187.03;;;12.38;100.00
59951;BME280;45812;53.540;9.774;2022-07-10T01:48:49;102188.19;;;12.35;100.00
59951;BME280;45812;53.540;9.774;2022-07-10T01:51:14;102190.81;;;12.45;100.00
59951;BME280;45812;53.540;9.774;2022-07-10T01:53:40;102187.22;;;12.46;100.00
59951;BME280;45812;53.540;9.774;2022-07-10T01:56:08;102189.00;;;12.55;100.00
59951;BME280;45812;53.540;9.774;2022-07-10T01:58:34;102191.81;;;12.44;100.00
59951;BME280;45812;53.540;9.774;2022-07-10T02:00:59;102190.44;;;12.30;100.00
59951;BME280;45812;53.540;9.774;2022-07-10T02:03:25;102189.88;;;12.46;100.00
59951;BME280;45812;53.540;9.774;2022-07-10T02:06:08;102179.75;;;12.40;100.00
59951;BME280;45812;53.540;9.774;2022-07-10T02:08:34;102184.81;;;12.33;100.00
59951;BME280;45812;53.540;9.774;2022-07-10T02:10:59;102177.47;;;12.26;100.00
59951;BME280;45812;53.540;9.774;2022-07-10T02:13:25;102183.53;;;12.37;100.00
59951;BME280;45812;53.540;9.774;2022-07-10T02:15:55;102180.28;;;12.24;100.00
59951;BME280;45812;53.540;9.774;2022-07-10T02:18:21;102182.25;;;12.22;100.00
59951;BME280;45812;53.540;9.774;2022-07-10T02:20:47;102169.06;;;12.30;100.00
59951;BME280;45812;53.540;9.774;2022-07-10T02:23:12;102167.09;;;12.42;100.00
59951;BME280;45812;53.540;9.774;2022-07-10T02:25:38;102166.25;;;12.32;100.00
59951;BME280;45812;53.540;9.774;2022-07-10T02:28:03;102169.47;;;12.26;100.00
59951;BME280;45812;53.540;9.774;2022-07-10T02:30:29;102163.00;;;12.38;100.00
59951;BME280;45812;53.540;9.774;2022-07-10T02:32:54;102167.78;;;12.44;100.00
59951;BME280;45812;53.540;9.774;2022-07-10T02:35:20;102150.47;;;12.58;100.00
59951;BME280;45812;53.540;9.774;2022-07-10T02:37:45;102163.69;;;12.59;100.00
59951;BME280;45812;53.540;9.774;2022-07-10T02:40:10;102163.44;;;12.43;100.00
59951;BME280;45812;53.540;9.774;2022-07-10T02:42:36;102160.22;;;12.49;100.00
59951;BME280;45812;53.540;9.774;2022-07-10T02:45:01;102171.72;;;12.40;100.00
59951;BME280;45812;53.540;9.774;2022-07-10T02:47:27;102158.66;;;12.56;100.00
59951;BME280;45812;53.540;9.774;2022-07-10T02:49:52;102160.88;;;12.61;100.00
59951;BME280;45812;53.540;9.774;2022-07-10T02:52:17;102151.63;;;12.65;100.00
59951;BME280;45812;53.540;9.774;2022-07-10T02:54:43;102151.03;;;12.61;100.00
59951;BME280;45812;53.540;9.774;2022-07-10T02:57:08;102155.81;;;12.58;100.00
59951;BME280;45812;53.540;9.774;2022-07-10T02:59:34;102160.59;;;12.44;100.00
59951;BME280;45812;53.540;9.774;2022-07-10T03:01:59;102154.00;;;12.58;100.00
59951;BME280;45812;53.540;9.774;2022-07-10T03:04:25;102155.28;;;12.54;100.00
59951;BME280;45812;53.540;9.774;2022-07-10T03:06:51;102152.31;;;12.57;100.00
59951;BME280;45812;53.540;9.774;2022-07-10T03:09:16;102157.25;;;12.42;100.00
59951;BME280;45812;53.540;9.774;2022-07-10T03:11:41;102164.28;;;12.34;100.00
59951;BME280;45812;53.540;9.774;2022-07-10T03:14:07;102158.94;;;12.34;100.00
59951;BME280;45812;53.540;9.774;2022-07-10T03:16:32;102160.63;;;12.54;100.00
59951;BME280;45812;53.540;9.774;2022-07-10T03:18:57;102165.09;;;12.44;100.00
59951;BME280;45812;53.540;9.774;2022-07-10T03:21:23;102160.91;;;12.51;100.00
59951;BME280;45812;53.540;9.774;2022-07-10T03:23:48;102157.94;;;12.54;100.00
59951;BME280;45812;53.540;9.774;2022-07-10T03:26:13;102156.41;;;12.52;100.00
59951;BME280;45812;53.540;9.774;2022-07-10T03:28:39;102159.38;;;12.49;100.00
59951;BME280;45812;53.540;9.774;2022-07-10T03:31:04;102158.94;;;12.43;100.00
59951;BME280;45812;53.540;9.774;2022-07-10T03:33:29;102155.84;;;12.48;100.00
59951;BME280;45812;53.540;9.774;2022-07-10T03:35:55;102149.53;;;12.49;100.00
59951;BME280;45812;53.540;9.774;2022-07-10T03:38:20;102149.81;;;12.46;100.00
59951;BME280;45812;53.540;9.774;2022-07-10T03:40:46;102148.81;;;12.57;100.00
59951;BME280;45812;53.540;9.774;2022-07-10T03:43:14;102152.19;;;12.49;100.00
59951;BME280;45812;53.540;9.774;2022-07-10T03:45:39;102155.81;;;12.67;100.00
59951;BME280;45812;53.540;9.774;2022-07-10T03:48:04;102155.53;;;12.70;99.76
59951;BME280;45812;53.540;9.774;2022-07-10T03:50:30;102148.50;;;12.69;99.33
59951;BME280;45812;53.540;9.774;2022-07-10T03:52:55;102147.94;;;12.76;99.57
59951;BME280;45812;53.540;9.774;2022-07-10T03:55:20;102153.28;;;12.76;99.40
59951;BME280;45812;53.540;9.774;2022-07-10T03:57:46;102148.06;;;12.74;99.47
59951;BME280;45812;53.540;9.774;2022-07-10T04:00:28;102145.97;;;12.68;99.62
59951;BME280;45812;53.540;9.774;2022-07-10T04:02:58;102150.78;;;12.45;100.00
59951;BME280;45812;53.540;9.774;2022-07-10T04:05:24;102151.34;;;12.39;100.00
59951;BME280;45812;53.540;9.774;2022-07-10T04:07:50;102157.53;;;12.39;100.00
59951;BME280;45812;53.540;9.774;2022-07-10T04:10:15;102153.88;;;12.50;100.00
59951;BME280;45812;53.540;9.774;2022-07-10T04:12:41;102160.47;;;12.65;100.00
59951;BME280;45812;53.540;9.774;2022-07-10T04:15:07;102159.16;;;12.79;99.44
59951;BME280;45812;53.540;9.774;2022-07-10T04:17:32;102147.56;;;12.98;98.09
59951;BME280;45812;53.540;9.774;2022-07-10T04:19:59;102155.72;;;13.06;97.48
59951;BME280;45812;53.540;9.774;2022-07-10T04:22:24;102148.50;;;13.16;96.76
59951;BME280;45812;53.540;9.774;2022-07-10T04:24:50;102144.59;;;13.11;96.60
59951;BME280;45812;53.540;9.774;2022-07-10T04:27:16;102132.06;;;13.21;96.21
59951;BME280;45812;53.540;9.774;2022-07-10T04:29:42;102135.97;;;13.26;95.74
59951;BME280;45812;53.540;9.774;2022-07-10T04:32:07;102136.03;;;13.44;95.08
59951;BME280;45812;53.540;9.774;2022-07-10T04:34:33;102133.28;;;13.54;94.66
59951;BME280;45812;53.540;9.774;2022-07-10T04:36:58;102133.50;;;13.43;94.86
59951;BME280;45812;53.540;9.774;2022-07-10T04:39:23;102143.25;;;13.34;95.84
59951;BME280;45812;53.540;9.774;2022-07-10T04:41:49;102143.25;;;13.34;95.99
59951;BME280;45812;53.540;9.774;2022-07-10T04:44:14;102148.66;;;13.24;96.23
59951;BME280;45812;53.540;9.774;2022-07-10T04:46:40;102147.47;;;13.37;96.28
59951;BME280;45812;53.540;9.774;2022-07-10T04:49:05;102138.56;;;13.46;94.92
59951;BME280;45812;53.540;9.774;2022-07-10T04:51:31;102144.00;;;13.54;94.45
59951;BME280;45812;53.540;9.774;2022-07-10T04:53:56;102139.78;;;13.51;94.53
59951;BME280;45812;53.540;9.774;2022-07-10T04:56:21;102146.88;;;13.43;94.43
59951;BME280;45812;53.540;9.774;2022-07-10T04:58:47;102147.88;;;13.42;94.43
59951;BME280;45812;53.540;9.774;2022-07-10T05:01:13;102143.94;;;13.36;93.84
59951;BME280;45812;53.540;9.774;2022-07-10T05:03:38;102149.94;;;13.48;93.57
59951;BME280;45812;53.540;9.774;2022-07-10T05:06:04;102145.75;;;13.45;92.60
59951;BME280;45812;53.540;9.774;2022-07-10T05:08:29;102143.22;;;13.44;92.05
59951;BME280;45812;53.540;9.774;2022-07-10T05:10:54;102150.88;;;13.29;92.61
59951;BME280;45812;53.540;9.774;2022-07-10T05:13:20;102145.47;;;13.39;91.44
59951;BME280;45812;53.540;9.774;2022-07-10T05:15:46;102153.00;;;13.53;90.89
59951;BME280;45812;53.540;9.774;2022-07-10T05:18:12;102146.09;;;13.60;90.76
59951;BME280;45812;53.540;9.774;2022-07-10T05:20:37;102155.56;;;13.72;89.51
59951;BME280;45812;53.540;9.774;2022-07-10T05:23:06;102154.00;;;13.79;89.04
59951;BME280;45812;53.540;9.774;2022-07-10T05:25:32;102152.25;;;13.88;87.16
59951;BME280;45812;53.540;9.774;2022-07-10T05:27:57;102143.69;;;13.84;85.97
59951;BME280;45812;53.540;9.774;2022-07-10T05:30:23;102142.38;;;13.88;86.32
59951;BME280;45812;53.540;9.774;2022-07-10T05:32:49;102156.22;;;13.84;83.83
59951;BME280;45812;53.540;9.774;2022-07-10T05:35:14;102154.94;;;14.06;84.11
59951;BME280;45812;53.540;9.774;2022-07-10T05:37:39;102150.25;;;14.08;82.00
59951;BME280;45812;53.540;9.774;2022-07-10T05:40:05;102144.75;;;14.09;81.64
59951;BME280;45812;53.540;9.774;2022-07-10T05:42:31;102139.56;;;14.08;80.47
59951;BME280;45812;53.540;9.774;2022-07-10T05:44:56;102147.53;;;14.17;80.35
59951;BME280;45812;53.540;9.774;2022-07-10T05:47:21;102149.13;;;14.28;80.58
59951;BME280;45812;53.540;9.774;2022-07-10T05:49:46;102144.06;;;14.25;79.52
59951;BME280;45812;53.540;9.774;2022-07-10T05:52:12;102145.38;;;14.39;78.41
59951;BME280;45812;53.540;9.774;2022-07-10T05:54:37;102153.09;;;14.42;78.38
59951;BME280;45812;53.540;9.774;2022-07-10T05:57:03;102148.78;;;14.67;78.38
59951;BME280;45812;53.540;9.774;2022-07-10T05:59:29;102146.25;;;14.65;78.84
59951;BME280;45812;53.540;9.774;2022-07-10T06:01:57;102145.34;;;14.74;76.00
59951;BME280;45812;53.540;9.774;2022-07-10T06:04:23;102155.53;;;14.71;76.51
59951;BME280;45812;53.540;9.774;2022-07-10T06:06:48;102156.97;;;14.65;75.85
59951;BME280;45812;53.540;9.774;2022-07-10T06:09:13;102161.34;;;14.66;75.98
59951;BME280;45812;53.540;9.774;2022-07-10T06:11:39;102161.41;;;14.74;76.72
59951;BME280;45812;53.540;9.774;2022-07-10T06:14:06;102157.63;;;14.59;75.43
59951;BME280;45812;53.540;9.774;2022-07-10T06:16:32;102158.28;;;14.61;74.64
59951;BME280;45812;53.540;9.774;2022-07-10T06:18:57;102159.81;;;14.64;74.71
59951;BME280;45812;53.540;9.774;2022-07-10T06:21:22;102154.69;;;14.70;74.97
59951;BME280;45812;53.540;9.774;2022-07-10T06:23:48;102154.97;;;14.67;72.70
59951;BME280;45812;53.540;9.774;2022-07-10T06:26:14;102163.25;;;14.74;71.43
59951;BME280;45812;53.540;9.774;2022-07-10T06:28:39;102167.97;;;14.80;71.54
59951;BME280;45812;53.540;9.774;2022-07-10T06:31:05;102170.41;;;14.91;71.53
59951;BME280;45812;53.540;9.774;2022-07-10T06:33:31;102167.97;;;15.06;71.57
59951;BME280;45812;53.540;9.774;2022-07-10T06:35:57;102169.53;;;15.08;70.26
59951;BME280;45812;53.540;9.774;2022-07-10T06:38:22;102163.44;;;15.32;70.54
59951;BME280;45812;53.540;9.774;2022-07-10T06:40:47;102168.88;;;15.49;68.57
59951;BME280;45812;53.540;9.774;2022-07-10T06:43:13;102175.03;;;15.67;68.86
59951;BME280;45812;53.540;9.774;2022-07-10T06:45:39;102174.88;;;15.77;69.14
59951;BME280;45812;53.540;9.774;2022-07-10T06:48:05;102171.50;;;15.74;68.77
59951;BME280;45812;53.540;9.774;2022-07-10T06:50:30;102179.06;;;15.79;67.16
59951;BME280;45812;53.540;9.774;2022-07-10T06:52:57;102168.03;;;15.98;65.21
59951;BME280;45812;53.540;9.774;2022-07-10T06:55:23;102169.44;;;16.35;65.60
59951;BME280;45812;53.540;9.774;2022-07-10T06:57:49;102168.94;;;16.64;65.72
59951;BME280;45812;53.540;9.774;2022-07-10T07:00:14;102165.59;;;16.78;64.76
59951;BME280;45812;53.540;9.774;2022-07-10T07:02:41;102158.53;;;16.85;62.89
59951;BME280;45812;53.540;9.774;2022-07-10T07:05:06;102161.06;;;16.71;64.21
59951;BME280;45812;53.540;9.774;2022-07-10T07:07:32;102156.16;;;16.66;63.34
59951;BME280;45812;53.540;9.774;2022-07-10T07:09:58;102160.03;;;16.72;62.45
59951;BME280;45812;53.540;9.774;2022-07-10T07:12:23;102153.66;;;16.73;58.64
59951;BME280;45812;53.540;9.774;2022-07-10T07:14:48;102149.09;;;16.65;59.34
59951;BME280;45812;53.540;9.774;2022-07-10T07:17:14;102164.94;;;16.76;58.47
59951;BME280;45812;53.540;9.774;2022-07-10T07:19:46;102164.06;;;16.84;58.48
59951;BME280;45812;53.540;9.774;2022-07-10T07:22:30;102160.47;;;17.08;58.35
59951;BME280;45812;53.540;9.774;2022-07-10T07:25:14;102153.31;;;17.39;56.85
59951;BME280;45812;53.540;9.774;2022-07-10T07:27:39;102156.72;;;17.25;56.51
59951;BME280;45812;53.540;9.774;2022-07-10T07:30:07;102160.66;;;17.14;58.64
59951;BME280;45812;53.540;9.774;2022-07-10T07:32:32;102161.53;;;16.90;58.67
59951;BME280;45812;53.540;9.774;2022-07-10T07:34:59;102165.59;;;16.62;57.30
59951;BME280;45812;53.540;9.774;2022-07-10T07:37:44;102157.69;;;16.60;58.91
59951;BME280;45812;53.540;9.774;2022-07-10T07:40:12;102157.69;;;16.44;58.38
59951;BME280;45812;53.540;9.774;2022-07-10T07:42:38;102150.97;;;16.81;58.46
59951;BME280;45812;53.540;9.774;2022-07-10T07:45:04;102158.56;;;17.33;56.33
59951;BME280;45812;53.540;9.774;2022-07-10T07:47:31;102160.81;;;17.60;54.61
59951;BME280;45812;53.540;9.774;2022-07-10T07:50:07;102156.00;;;17.39;52.70
59951;BME280;45812;53.540;9.774;2022-07-10T07:52:32;102161.34;;;17.55;53.88
59951;BME280;45812;53.540;9.774;2022-07-10T07:55:00;102149.97;;;17.76;53.55
59951;BME280;45812;53.540;9.774;2022-07-10T07:57:25;102154.69;;;18.05;53.93
59951;BME280;45812;53.540;9.774;2022-07-10T07:59:51;102156.78;;;18.18;53.44
59951;BME280;45812;53.540;9.774;2022-07-10T08:02:16;102143.13;;;18.20;56.66
59951;BME280;45812;53.540;9.774;2022-07-10T08:04:41;102149.59;;;18.33;51.44
59951;BME280;45812;53.540;9.774;2022-07-10T08:07:07;102148.69;;;18.41;50.75
59951;BME280;45812;53.540;9.774;2022-07-10T08:09:32;102149.72;;;18.55;51.35
59951;BME280;45812;53.540;9.774;2022-07-10T08:11:57;102137.63;;;18.73;50.32
59951;BME280;45812;53.540;9.774;2022-07-10T08:14:23;102145.72;;;18.73;50.95
59951;BME280;45812;53.540;9.774;2022-07-10T08:16:48;102154.97;;;18.33;52.59
59951;BME280;45812;53.540;9.774;2022-07-10T08:19:16;102147.03;;;17.55;54.34
59951;BME280;45812;53.540;9.774;2022-07-10T08:21:41;102149.91;;;17.45;56.76
59951;BME280;45812;53.540;9.774;2022-07-10T08:24:06;102148.78;;;17.40;54.47
59951;BME280;45812;53.540;9.774;2022-07-10T08:26:31;102138.91;;;17.24;56.36
59951;BME280;45812;53.540;9.774;2022-07-10T08:28:57;102139.31;;;17.05;57.52
59951;BME280;45812;53.540;9.774;2022-07-10T08:31:22;102135.38;;;17.23;56.83
59951;BME280;45812;53.540;9.774;2022-07-10T08:33:48;102144.53;;;17.53;55.07
59951;BME280;45812;53.540;9.774;2022-07-10T08:36:14;102151.59;;;17.54;53.99
59951;BME280;45812;53.540;9.774;2022-07-10T08:38:39;102140.22;;;17.36;55.23
59951;BME280;45812;53.540;9.774;2022-07-10T08:41:05;102142.47;;;17.16;53.49
59951;BME280;45812;53.540;9.774;2022-07-10T08:43:31;102140.16;;;17.05;54.03
59951;BME280;45812;53.540;9.774;2022-07-10T08:45:57;102147.88;;;17.16;53.29
59951;BME280;45812;53.540;9.774;2022-07-10T08:48:24;102140.94;;;17.30;52.42
59951;BME280;45812;53.540;9.774;2022-07-10T08:50:53;102150.03;;;17.21;50.84
59951;BME280;45812;53.540;9.774;2022-07-10T08:53:30;102145.78;;;17.26;53.58
59951;BME280;45812;53.540;9.774;2022-07-10T08:55:57;102141.66;;;17.55;54.47
59951;BME280;45812;53.540;9.774;2022-07-10T08:58:23;102140.69;;;17.79;50.20
59951;BME280;45812;53.540;9.774;2022-07-10T09:00:49;102135.50;;;18.46;50.54
59951;BME280;45812;53.540;9.774;2022-07-10T09:03:14;102140.78;;;18.77;48.09
59951;BME280;45812;53.540;9.774;2022-07-10T09:05:39;102137.47;;;18.52;50.68
59951;BME280;45812;53.540;9.774;2022-07-10T09:08:21;102138.75;;;18.19;49.14
59951;BME280;45812;53.540;9.774;2022-07-10T09:10:47;102142.19;;;17.81;48.65
59951;BME280;45812;53.540;9.774;2022-07-10T09:13:12;102136.47;;;17.45;50.35
59951;BME280;45812;53.540;9.774;2022-07-10T09:15:38;102134.44;;;17.47;50.87
59951;BME280;45812;53.540;9.774;2022-07-10T09:18:05;102139.47;;;17.90;52.09
59951;BME280;45812;53.540;9.774;2022-07-10T09:20:37;102153.38;;;18.24;50.42
59951;BME280;45812;53.540;9.774;2022-07-10T09:23:19;102132.22;;;18.73;49.17
59951;BME280;45812;53.540;9.774;2022-07-10T09:25:46;102140.69;;;18.70;48.33
59951;BME280;45812;53.540;9.774;2022-07-10T09:28:13;102138.75;;;18.56;50.41
59951;BME280;45812;53.540;9.774;2022-07-10T09:30:40;102132.31;;;18.65;49.16
59951;BME280;45812;53.540;9.774;2022-07-10T09:33:23;102135.19;;;18.64;47.78
59951;BME280;45812;53.540;9.774;2022-07-10T09:41:30;102139.69;;;18.86;46.24
59951;BME280;45812;53.540;9.774;2022-07-10T09:44:03;102139.13;;;18.53;46.29
59951;BME280;45812;53.540;9.774;2022-07-10T09:46:39;102139.56;;;18.65;46.67
59951;BME280;45812;53.540;9.774;2022-07-10T09:49:08;102132.59;;;18.70;47.84
59951;BME280;45812;53.540;9.774;2022-07-10T09:51:37;102155.63;;;19.11;47.32
59951;BME280;45812;53.540;9.774;2022-07-10T09:54:04;102149.66;;;19.59;44.21
59951;BME280;45812;53.540;9.774;2022-07-10T09:56:35;102145.25;;;19.73;43.96
59951;BME280;45812;53.540;9.774;2022-07-10T09:59:05;102146.72;;;19.76;44.11
59951;BME280;45812;53.540;9.774;2022-07-10T10:01:32;102150.94;;;20.00;44.41
59951;BME280;45812;53.540;9.774;2022-07-10T10:03:58;102145.47;;;20.36;44.26
59951;BME280;45812;53.540;9.774;2022-07-10T10:06:26;102146.09;;;20.59;43.29
59951;BME280;45812;53.540;9.774;2022-07-10T10:09:15;102138.44;;;20.63;43.80
59951;BME280;45812;53.540;9.774;2022-07-10T10:11:44;102139.91;;;21.75;42.93
59951;BME280;45812;53.540;9.774;2022-07-10T10:14:10;102148.38;;;22.73;40.06
59951;BME280;45812;53.540;9.774;2022-07-10T10:16:37;102140.88;;;23.60;37.44
59951;BME280;45812;53.540;9.774;2022-07-10T10:19:02;102132.75;;;23.91;36.53
59951;BME280;45812;53.540;9.774;2022-07-10T10:21:47;102137.34;;;23.91;36.70
59951;BME280;45812;53.540;9.774;2022-07-10T10:24:13;102142.03;;;23.77;37.18
59951;BME280;45812;53.540;9.774;2022-07-10T10:26:40;102140.31;;;23.38;37.79
59951;BME280;45812;53.540;9.774;2022-07-10T10:29:06;102140.91;;;23.46;37.75
59951;BME280;45812;53.540;9.774;2022-07-10T10:31:32;102127.06;;;23.99;37.08
59951;BME280;45812;53.540;9.774;2022-07-10T10:33:58;102135.47;;;25.52;33.52
59951;BME280;45812;53.540;9.774;2022-07-10T10:36:46;102125.69;;;27.85;30.91
59951;BME280;45812;53.540;9.774;2022-07-10T10:39:16;102142.41;;;25.85;33.42
59951;BME280;45812;53.540;9.774;2022-07-10T10:41:54;102146.00;;;25.49;33.94
59951;BME280;45812;53.540;9.774;2022-07-10T10:44:21;102144.53;;;28.99;27.74
59951;BME280;45812;53.540;9.774;2022-07-10T10:49:16;102133.34;;;24.00;34.23
59951;BME280;45812;53.540;9.774;2022-07-10T10:54:25;102137.59;;;30.06;27.36
59951;BME280;45812;53.540;9.774;2022-07-10T10:57:13;102141.03;;;27.46;31.63
59951;BME280;45812;53.540;9.774;2022-07-10T10:59:50;102141.53;;;27.43;30.05
59951;BME280;45812;53.540;9.774;2022-07-10T11:04:52;102145.19;;;26.97;30.25
59951;BME280;45812;53.540;9.774;2022-07-10T11:07:53;102141.19;;;26.22;31.04
59951;BME280;45812;53.540;9.774;2022-07-10T11:13:01;102139.13;;;31.66;22.80
59951;BME280;45812;53.540;9.774;2022-07-10T11:15:28;102134.97;;;31.53;22.93
59951;BME280;45812;53.540;9.774;2022-07-10T11:17:59;102139.19;;;31.13;24.11
59951;BME280;45812;53.540;9.774;2022-07-10T11:20:24;102138.13;;;29.76;25.46
59951;BME280;45812;53.540;9.774;2022-07-10T11:26:03;102140.69;;;30.84;22.46
59951;BME280;45812;53.540;9.774;2022-07-10T11:28:59;102137.44;;;33.71;19.96
59951;BME280;45812;53.540;9.774;2022-07-10T11:31:26;102141.31;;;35.63;18.31
59951;BME280;45812;53.540;9.774;2022-07-10T11:33:53;102126.69;;;36.33;17.59
59951;BME280;45812;53.540;9.774;2022-07-10T11:36:23;102138.50;;;36.38;17.43
59951;BME280;45812;53.540;9.774;2022-07-10T11:39:08;102129.22;;;35.16;18.15
59951;BME280;45812;53.540;9.774;2022-07-10T11:41:34;102135.03;;;34.67;19.20
59951;BME280;45812;53.540;9.774;2022-07-10T11:44:06;102135.06;;;32.75;21.24
59951;BME280;45812;53.540;9.774;2022-07-10T11:46:37;102135.75;;;28.97;24.84
59951;BME280;45812;53.540;9.774;2022-07-10T11:49:04;102134.91;;;26.22;29.23
59951;BME280;45812;53.540;9.774;2022-07-10T11:51:33;102133.25;;;29.83;25.28
59951;BME280;45812;53.540;9.774;2022-07-10T11:54:05;102145.41;;;30.88;23.35
59951;BME280;45812;53.540;9.774;2022-07-10T11:56:33;102125.69;;;32.76;20.58
59951;BME280;45812;53.540;9.774;2022-07-10T11:59:04;102126.16;;;30.51;23.99
59951;BME280;45812;53.540;9.774;2022-07-10T12:01:32;102137.75;;;27.32;27.17
59951;BME280;45812;53.540;9.774;2022-07-10T12:04:02;102143.22;;;26.27;29.23
59951;BME280;45812;53.540;9.774;2022-07-10T12:06:30;102144.38;;;27.48;27.58
59951;BME280;45812;53.540;9.774;2022-07-10T12:08:55;102145.16;;;27.89;26.62
59951;BME280;45812;53.540;9.774;2022-07-10T12:11:22;102147.28;;;27.70;27.83
59951;BME280;45812;53.540;9.774;2022-07-10T12:13:50;102141.16;;;32.11;22.39
59951;BME280;45812;53.540;9.774;2022-07-10T12:16:17;102135.69;;;30.38;23.80
59951;BME280;45812;53.540;9.774;2022-07-10T12:18:45;102151.31;;;28.58;25.70
59951;BME280;45812;53.540;9.774;2022-07-10T12:21:12;102152.34;;;28.23;26.47
59951;BME280;45812;53.540;9.774;2022-07-10T12:23:38;102159.00;;;28.78;24.93
59951;BME280;45812;53.540;9.774;2022-07-10T12:26:08;102159.34;;;32.07;20.93
59951;BME280;45812;53.540;9.774;2022-07-10T12:28:56;102144.59;;;33.18;19.85
59951;BME280;45812;53.540;9.774;2022-07-10T12:31:29;102153.28;;;34.00;18.34
59951;BME280;45812;53.540;9.774;2022-07-10T12:33:56;102149.03;;;34.76;18.11
59951;BME280;45812;53.540;9.774;2022-07-10T12:36:47;102154.53;;;35.53;18.43
59951;BME280;45812;53.540;9.774;2022-07-10T12:39:15;102159.75;;;34.82;17.81
59951;BME280;45812;53.540;9.774;2022-07-10T12:42:02;102151.59;;;35.63;18.24
59951;BME280;45812;53.540;9.774;2022-07-10T12:44:36;102154.78;;;31.60;22.51
59951;BME280;45812;53.540;9.774;2022-07-10T12:47:02;102158.75;;;30.05;23.82
59951;BME280;45812;53.540;9.774;2022-07-10T12:49:27;102156.63;;;33.53;20.52
59951;BME280;45812;53.540;9.774;2022-07-10T12:51:53;102152.31;;;31.48;21.96
59951;BME280;45812;53.540;9.774;2022-07-10T12:54:31;102168.97;;;32.04;21.83
59951;BME280;45812;53.540;9.774;2022-07-10T12:56:57;102159.25;;;29.32;23.80
59951;BME280;45812;53.540;9.774;2022-07-10T12:59:23;102153.78;;;27.52;26.91
59951;BME280;45812;53.540;9.774;2022-07-10T13:01:49;102159.25;;;31.66;22.29
59951;BME280;45812;53.540;9.774;2022-07-10T13:04:14;102165.56;;;30.03;23.85
59951;BME280;45812;53.540;9.774;2022-07-10T13:06:47;102166.22;;;31.21;23.60
59951;BME280;45812;53.540;9.774;2022-07-10T13:09:25;102158.50;;;34.07;20.14